sensor_id;sensor_type;location;lat;lon;timestamp;temperature;humidity
11577;DHT22;5844;51.496;6.788;2023-02-05T00:00:18;7.40;99.90
11577;DHT22;5844;51.496;6.788;2023-02-05T00:02:44;7.40;99.90
11577;DHT22;5844;51.496;6.788;2023-02-05T00:05:09;7.40;99.90
11577;DHT22;5844;51.496;6.788;2023-02-05T00:07:35;7.80;99.90
11577;DHT22;5844;51.496;6.788;2023-02-05T00:10:01;7.30;99.90
11577;DHT22;5844;51.496;6.788;2023-02-05T00:12:27;7.30;99.90
11577;DHT22;5844;51.496;6.788;2023-02-05T00:14:52;7.20;99.90
11577;DHT22;5844;51.496;6.788;2023-02-05T00:17:18;7.30;99.90
11577;DHT22;5844;51.496;6.788;2023-02-05T00:19:44;7.40;99.90
11577;DHT22;5844;51.496;6.788;2023-02-05T00:22:09;7.30;99.90
11577;DHT22;5844;51.496;6.788;2023-02-05T00:24:35;7.20;99.90
11577;DHT22;5844;51.496;6.788;2023-02-05T00:27:00;7.10;99.90
11577;DHT22;5844;51.496;6.788;2023-02-05T00:29:26;7.10;99.90
11577;DHT22;5844;51.496;6.788;2023-02-05T00:31:52;7.00;99.90
11577;DHT22;5844;51.496;6.788;2023-02-05T00:34:18;7.00;99.90
11577;DHT22;5844;51.496;6.788;2023-02-05T00:36:43;7.00;99.90
11577;DHT22;5844;51.496;6.788;2023-02-05T00:39:09;6.90;99.90
11577;DHT22;5844;51.496;6.788;2023-02-05T00:41:36;7.20;99.90
11577;DHT22;5844;51.496;6.788;2023-02-05T00:44:02;6.80;99.90
11577;DHT22;5844;51.496;6.788;2023-02-05T00:46:28;6.80;99.90
11577;DHT22;5844;51.496;6.788;2023-02-05T00:48:54;6.70;99.90
11577;DHT22;5844;51.496;6.788;2023-02-05T00:51:19;6.70;99.90
11577;DHT22;5844;51.496;6.788;2023-02-05T00:53:45;6.60;99.90
11577;DHT22;5844;51.496;6.788;2023-02-05T00:56:11;6.70;99.90
11577;DHT22;5844;51.496;6.788;2023-02-05T00:58:36;6.60;99.90
11577;DHT22;5844;51.496;6.788;2023-02-05T01:01:02;6.80;99.90
11577;DHT22;5844;51.496;6.788;2023-02-05T01:03:28;6.70;99.90
11577;DHT22;5844;51.496;6.788;2023-02-05T01:05:55;6.70;99.90
11577;DHT22;5844;51.496;6.788;2023-02-05T01:08:21;6.70;99.90
11577;DHT22;5844;51.496;6.788;2023-02-05T01:10:49;6.70;99.90
11577;DHT22;5844;51.496;6.788;2023-02-05T01:13:15;6.70;99.90
11577;DHT22;5844;51.496;6.788;2023-02-05T01:15:42;6.70;99.90
11577;DHT22;5844;51.496;6.788;2023-02-05T01:18:07;6.70;99.90
11577;DHT22;5844;51.496;6.788;2023-02-05T01:20:36;6.90;99.90
11577;DHT22;5844;51.496;6.788;2023-02-05T01:23:02;6.70;99.90
11577;DHT22;5844;51.496;6.788;2023-02-05T01:25:28;6.70;99.90
11577;DHT22;5844;51.496;6.788;2023-02-05T01:27:53;6.60;99.90
11577;DHT22;5844;51.496;6.788;2023-02-05T01:30:19;6.70;99.90
11577;DHT22;5844;51.496;6.788;2023-02-05T01:32:44;6.70;99.90
11577;DHT22;5844;51.496;6.788;2023-02-05T01:35:10;6.70;99.90
11577;DHT22;5844;51.496;6.788;2023-02-05T01:37:36;6.90;99.90
11577;DHT22;5844;51.496;6.788;2023-02-05T01:40:01;6.70;99.90
11577;DHT22;5844;51.496;6.788;2023-02-05T01:42:29;6.70;99.90
11577;DHT22;5844;51.496;6.788;2023-02-05T01:47:44;6.70;99.90
11577;DHT22;5844;51.496;6.788;2023-02-05T01:50:10;6.80;99.90
11577;DHT22;5844;51.496;6.788;2023-02-05T01:52:35;6.90;99.90
11577;DHT22;5844;51.496;6.788;2023-02-05T01:55:01;6.80;99.90
11577;DHT22;5844;51.496;6.788;2023-02-05T01:57:28;6.80;99.90
11577;DHT22;5844;51.496;6.788;2023-02-05T01:59:54;6.70;99.90
11577;DHT22;5844;51.496;6.788;2023-02-05T02:02:19;6.80;99.90
11577;DHT22;5844;51.496;6.788;2023-02-05T02:04:54;7.10;99.90
11577;DHT22;5844;51.496;6.788;2023-02-05T02:07:22;6.80;99.90
11577;DHT22;5844;51.496;6.788;2023-02-05T02:09:49;6.90;99.90
11577;DHT22;5844;51.496;6.788;2023-02-05T02:12:20;6.90;99.90
11577;DHT22;5844;51.496;6.788;2023-02-05T02:14:49;7.00;99.90
11577;DHT22;5844;51.496;6.788;2023-02-05T02:17:17;6.90;99.90
11577;DHT22;5844;51.496;6.788;2023-02-05T02:19:52;6.90;99.90
11577;DHT22;5844;51.496;6.788;2023-02-05T02:31:11;6.90;99.90
11577;DHT22;5844;51.496;6.788;2023-02-05T02:34:01;6.90;99.90
11577;DHT22;5844;51.496;6.788;2023-02-05T02:36:37;6.80;99.90
11577;DHT22;5844;51.496;6.788;2023-02-05T02:39:13;6.90;99.90
11577;DHT22;5844;51.496;6.788;2023-02-05T02:44:16;7.00;99.90
11577;DHT22;5844;51.496;6.788;2023-02-05T02:46:51;7.00;99.90
11577;DHT22;5844;51.496;6.788;2023-02-05T02:49:25;7.10;99.90
11577;DHT22;5844;51.496;6.788;2023-02-05T02:51:54;7.20;99.90
11577;DHT22;5844;51.496;6.788;2023-02-05T02:54:22;7.20;99.90
11577;DHT22;5844;51.496;6.788;2023-02-05T02:56:50;7.20;99.90
11577;DHT22;5844;51.496;6.788;2023-02-05T02:59:21;7.30;99.90
11577;DHT22;5844;51.496;6.788;2023-02-05T03:01:52;7.30;99.90
11577;DHT22;5844;51.496;6.788;2023-02-05T03:04:24;7.20;99.90
11577;DHT22;5844;51.496;6.788;2023-02-05T03:06:54;7.20;99.90
11577;DHT22;5844;51.496;6.788;2023-02-05T03:09:38;7.20;99.90
11577;DHT22;5844;51.496;6.788;2023-02-05T03:12:05;7.20;99.90
11577;DHT22;5844;51.496;6.788;2023-02-05T03:14:31;7.20;99.90
11577;DHT22;5844;51.496;6.788;2023-02-05T03:16:58;7.20;99.90
11577;DHT22;5844;51.496;6.788;2023-02-05T03:19:24;7.30;99.90
11577;DHT22;5844;51.496;6.788;2023-02-05T03:21:55;7.20;99.90
11577;DHT22;5844;51.496;6.788;2023-02-05T03:24:21;7.50;99.90
11577;DHT22;5844;51.496;6.788;2023-02-05T03:26:47;7.40;99.90
11577;DHT22;5844;51.496;6.788;2023-02-05T03:29:24;7.50;99.90
11577;DHT22;5844;51.496;6.788;2023-02-05T03:32:25;7.30;99.90
11577;DHT22;5844;51.496;6.788;2023-02-05T03:45:33;7.60;99.90
11577;DHT22;5844;51.496;6.788;2023-02-05T03:48:11;7.60;99.90
11577;DHT22;5844;51.496;6.788;2023-02-05T03:50:40;7.60;99.90
11577;DHT22;5844;51.496;6.788;2023-02-05T03:56:03;7.60;99.90
11577;DHT22;5844;51.496;6.788;2023-02-05T03:58:38;7.60;99.90
11577;DHT22;5844;51.496;6.788;2023-02-05T04:01:06;7.60;99.90
11577;DHT22;5844;51.496;6.788;2023-02-05T04:03:32;7.60;99.90
11577;DHT22;5844;51.496;6.788;2023-02-05T04:05:58;7.70;99.90
11577;DHT22;5844;51.496;6.788;2023-02-05T04:08:24;7.60;99.90
11577;DHT22;5844;51.496;6.788;2023-02-05T04:10:49;7.60;99.90
11577;DHT22;5844;51.496;6.788;2023-02-05T04:13:15;7.70;99.90
11577;DHT22;5844;51.496;6.788;2023-02-05T04:15:40;7.70;99.90
11577;DHT22;5844;51.496;6.788;2023-02-05T04:18:06;7.70;99.90
11577;DHT22;5844;51.496;6.788;2023-02-05T04:20:32;7.70;99.90
11577;DHT22;5844;51.496;6.788;2023-02-05T04:22:58;7.70;99.90
11577;DHT22;5844;51.496;6.788;2023-02-05T04:25:24;7.80;99.90
11577;DHT22;5844;51.496;6.788;2023-02-05T04:27:49;7.80;99.90
11577;DHT22;5844;51.496;6.788;2023-02-05T04:30:15;7.80;99.90
11577;DHT22;5844;51.496;6.788;2023-02-05T04:32:41;7.80;99.90
11577;DHT22;5844;51.496;6.788;2023-02-05T04:35:07;7.80;99.90
11577;DHT22;5844;51.496;6.788;2023-02-05T04:37:32;7.80;99.90
11577;DHT22;5844;51.496;6.788;2023-02-05T04:39:58;7.90;99.90
11577;DHT22;5844;51.496;6.788;2023-02-05T04:42:24;7.80;99.90
11577;DHT22;5844;51.496;6.788;2023-02-05T04:44:49;7.90;99.90
11577;DHT22;5844;51.496;6.788;2023-02-05T04:47:17;7.70;99.90
11577;DHT22;5844;51.496;6.788;2023-02-05T04:49:42;7.80;99.90
11577;DHT22;5844;51.496;6.788;2023-02-05T04:52:08;7.80;99.90
11577;DHT22;5844;51.496;6.788;2023-02-05T04:54:36;7.80;99.90
11577;DHT22;5844;51.496;6.788;2023-02-05T04:57:01;7.80;99.90
11577;DHT22;5844;51.496;6.788;2023-02-05T04:59:27;7.90;99.90
11577;DHT22;5844;51.496;6.788;2023-02-05T05:01:54;7.90;99.90
11577;DHT22;5844;51.496;6.788;2023-02-05T05:04:20;7.90;99.90
11577;DHT22;5844;51.496;6.788;2023-02-05T05:06:46;7.90;99.90
11577;DHT22;5844;51.496;6.788;2023-02-05T05:09:11;7.90;99.90
11577;DHT22;5844;51.496;6.788;2023-02-05T05:11:38;8.30;99.90
11577;DHT22;5844;51.496;6.788;2023-02-05T05:14:04;8.00;99.90
11577;DHT22;5844;51.496;6.788;2023-02-05T05:16:29;8.00;99.90
11577;DHT22;5844;51.496;6.788;2023-02-05T05:18:55;8.10;99.90
11577;DHT22;5844;51.496;6.788;2023-02-05T05:21:21;8.20;99.90
11577;DHT22;5844;51.496;6.788;2023-02-05T05:23:46;8.10;99.90
11577;DHT22;5844;51.496;6.788;2023-02-05T05:26:12;8.10;99.90
11577;DHT22;5844;51.496;6.788;2023-02-05T05:28:38;8.10;99.90
11577;DHT22;5844;51.496;6.788;2023-02-05T05:31:11;8.10;99.90
11577;DHT22;5844;51.496;6.788;2023-02-05T05:33:37;8.00;99.90
11577;DHT22;5844;51.496;6.788;2023-02-05T05:36:05;8.00;99.90
11577;DHT22;5844;51.496;6.788;2023-02-05T05:38:31;8.00;99.90
11577;DHT22;5844;51.496;6.788;2023-02-05T05:40:57;8.00;99.90
11577;DHT22;5844;51.496;6.788;2023-02-05T05:43:41;8.00;99.90
11577;DHT22;5844;51.496;6.788;2023-02-05T05:46:20;8.00;99.90
11577;DHT22;5844;51.496;6.788;2023-02-05T05:48:53;8.00;99.90
11577;DHT22;5844;51.496;6.788;2023-02-05T05:51:20;8.00;99.90
11577;DHT22;5844;51.496;6.788;2023-02-05T05:53:46;8.00;99.90
11577;DHT22;5844;51.496;6.788;2023-02-05T05:56:12;8.00;99.90
11577;DHT22;5844;51.496;6.788;2023-02-05T05:58:38;8.00;99.90
11577;DHT22;5844;51.496;6.788;2023-02-05T06:01:05;8.00;99.90
11577;DHT22;5844;51.496;6.788;2023-02-05T06:03:31;7.90;99.90
11577;DHT22;5844;51.496;6.788;2023-02-05T06:06:03;7.90;99.90
11577;DHT22;5844;51.496;6.788;2023-02-05T06:08:29;7.90;99.90
11577;DHT22;5844;51.496;6.788;2023-02-05T06:10:55;7.90;99.90
11577;DHT22;5844;51.496;6.788;2023-02-05T06:13:21;8.00;99.90
11577;DHT22;5844;51.496;6.788;2023-02-05T06:15:47;8.00;99.90
11577;DHT22;5844;51.496;6.788;2023-02-05T06:18:14;8.30;99.90
11577;DHT22;5844;51.496;6.788;2023-02-05T06:20:40;8.00;99.90
11577;DHT22;5844;51.496;6.788;2023-02-05T06:23:06;8.00;99.90
11577;DHT22;5844;51.496;6.788;2023-02-05T06:25:31;7.90;99.90
11577;DHT22;5844;51.496;6.788;2023-02-05T06:27:57;8.00;99.90
11577;DHT22;5844;51.496;6.788;2023-02-05T06:30:23;8.00;99.90
11577;DHT22;5844;51.496;6.788;2023-02-05T06:32:49;8.00;99.90
11577;DHT22;5844;51.496;6.788;2023-02-05T06:35:14;8.00;99.90
11577;DHT22;5844;51.496;6.788;2023-02-05T06:37:40;8.00;99.90
11577;DHT22;5844;51.496;6.788;2023-02-05T06:40:06;7.90;99.90
11577;DHT22;5844;51.496;6.788;2023-02-05T06:42:32;8.00;99.90
11577;DHT22;5844;51.496;6.788;2023-02-05T06:44:58;7.90;99.90
11577;DHT22;5844;51.496;6.788;2023-02-05T06:47:24;7.90;99.90
11577;DHT22;5844;51.496;6.788;2023-02-05T06:49:49;7.90;99.90
11577;DHT22;5844;51.496;6.788;2023-02-05T06:52:15;7.90;99.90
11577;DHT22;5844;51.496;6.788;2023-02-05T06:54:41;7.90;99.90
11577;DHT22;5844;51.496;6.788;2023-02-05T06:57:08;7.90;99.90
11577;DHT22;5844;51.496;6.788;2023-02-05T06:59:33;7.90;99.90
11577;DHT22;5844;51.496;6.788;2023-02-05T07:01:59;7.80;99.90
11577;DHT22;5844;51.496;6.788;2023-02-05T07:04:25;7.70;99.90
11577;DHT22;5844;51.496;6.788;2023-02-05T07:06:53;7.70;99.90
11577;DHT22;5844;51.496;6.788;2023-02-05T07:09:19;7.80;99.90
11577;DHT22;5844;51.496;6.788;2023-02-05T07:11:45;7.70;99.90
11577;DHT22;5844;51.496;6.788;2023-02-05T07:14:10;7.70;99.90
11577;DHT22;5844;51.496;6.788;2023-02-05T07:16:36;7.70;99.90
11577;DHT22;5844;51.496;6.788;2023-02-05T07:19:01;7.70;99.90
11577;DHT22;5844;51.496;6.788;2023-02-05T07:21:27;7.70;99.90
11577;DHT22;5844;51.496;6.788;2023-02-05T07:23:53;7.60;99.90
11577;DHT22;5844;51.496;6.788;2023-02-05T07:26:18;7.50;99.90
11577;DHT22;5844;51.496;6.788;2023-02-05T07:28:44;7.50;99.90
11577;DHT22;5844;51.496;6.788;2023-02-05T07:31:14;8.20;99.90
11577;DHT22;5844;51.496;6.788;2023-02-05T07:33:42;7.60;99.90
11577;DHT22;5844;51.496;6.788;2023-02-05T07:36:09;7.60;99.90
11577;DHT22;5844;51.496;6.788;2023-02-05T07:38:36;7.70;99.90
11577;DHT22;5844;51.496;6.788;2023-02-05T07:41:06;7.60;99.90
11577;DHT22;5844;51.496;6.788;2023-02-05T07:43:33;7.50;99.90
11577;DHT22;5844;51.496;6.788;2023-02-05T07:46:04;7.50;99.90
11577;DHT22;5844;51.496;6.788;2023-02-05T07:48:30;7.50;99.90
11577;DHT22;5844;51.496;6.788;2023-02-05T07:50:56;7.60;99.90
11577;DHT22;5844;51.496;6.788;2023-02-05T07:53:22;7.50;99.90
11577;DHT22;5844;51.496;6.788;2023-02-05T07:55:48;7.50;99.90
11577;DHT22;5844;51.496;6.788;2023-02-05T07:58:14;7.60;99.90
11577;DHT22;5844;51.496;6.788;2023-02-05T08:00:40;7.50;99.90
11577;DHT22;5844;51.496;6.788;2023-02-05T08:03:06;7.50;99.90
11577;DHT22;5844;51.496;6.788;2023-02-05T08:05:32;7.50;99.90
11577;DHT22;5844;51.496;6.788;2023-02-05T08:07:58;7.40;99.90
11577;DHT22;5844;51.496;6.788;2023-02-05T08:10:24;8.00;99.90
11577;DHT22;5844;51.496;6.788;2023-02-05T08:12:49;7.70;99.90
11577;DHT22;5844;51.496;6.788;2023-02-05T08:15:15;7.40;99.90
11577;DHT22;5844;51.496;6.788;2023-02-05T08:17:41;7.30;99.90
11577;DHT22;5844;51.496;6.788;2023-02-05T08:20:07;7.10;99.90
11577;DHT22;5844;51.496;6.788;2023-02-05T08:22:35;7.10;99.90
11577;DHT22;5844;51.496;6.788;2023-02-05T08:25:01;7.40;99.90
11577;DHT22;5844;51.496;6.788;2023-02-05T08:27:26;7.10;99.90
11577;DHT22;5844;51.496;6.788;2023-02-05T08:29:52;7.20;99.90
11577;DHT22;5844;51.496;6.788;2023-02-05T08:32:18;7.00;99.90
11577;DHT22;5844;51.496;6.788;2023-02-05T08:34:43;6.80;99.90
11577;DHT22;5844;51.496;6.788;2023-02-05T08:37:10;6.80;99.90
11577;DHT22;5844;51.496;6.788;2023-02-05T08:39:35;6.80;99.90
11577;DHT22;5844;51.496;6.788;2023-02-05T08:42:02;7.40;99.90
11577;DHT22;5844;51.496;6.788;2023-02-05T08:44:28;6.70;99.90
11577;DHT22;5844;51.496;6.788;2023-02-05T08:46:54;6.70;99.90
11577;DHT22;5844;51.496;6.788;2023-02-05T08:49:20;6.70;99.90
11577;DHT22;5844;51.496;6.788;2023-02-05T08:51:46;6.60;99.90
11577;DHT22;5844;51.496;6.788;2023-02-05T08:54:11;6.70;99.90
11577;DHT22;5844;51.496;6.788;2023-02-05T08:56:40;6.60;99.90
11577;DHT22;5844;51.496;6.788;2023-02-05T08:59:06;6.60;99.90
11577;DHT22;5844;51.496;6.788;2023-02-05T09:01:32;7.00;99.90
11577;DHT22;5844;51.496;6.788;2023-02-05T09:03:58;7.00;99.90
11577;DHT22;5844;51.496;6.788;2023-02-05T09:06:24;6.80;99.90
11577;DHT22;5844;51.496;6.788;2023-02-05T09:08:49;7.00;99.90
11577;DHT22;5844;51.496;6.788;2023-02-05T09:11:20;6.80;99.90
11577;DHT22;5844;51.496;6.788;2023-02-05T09:13:46;6.80;99.90
11577;DHT22;5844;51.496;6.788;2023-02-05T09:16:11;7.40;99.90
11577;DHT22;5844;51.496;6.788;2023-02-05T09:18:37;6.90;99.90
11577;DHT22;5844;51.496;6.788;2023-02-05T09:21:06;7.00;99.90
11577;DHT22;5844;51.496;6.788;2023-02-05T09:23:32;6.90;99.90
11577;DHT22;5844;51.496;6.788;2023-02-05T09:25:58;6.90;99.90
11577;DHT22;5844;51.496;6.788;2023-02-05T09:28:24;7.00;99.90
11577;DHT22;5844;51.496;6.788;2023-02-05T09:30:50;6.90;99.90
11577;DHT22;5844;51.496;6.788;2023-02-05T09:33:16;6.90;99.90
11577;DHT22;5844;51.496;6.788;2023-02-05T09:35:42;7.00;99.90
11577;DHT22;5844;51.496;6.788;2023-02-05T09:38:08;7.00;99.90
11577;DHT22;5844;51.496;6.788;2023-02-05T09:43:45;7.00;99.90
11577;DHT22;5844;51.496;6.788;2023-02-05T09:46:35;7.00;99.90
11577;DHT22;5844;51.496;6.788;2023-02-05T09:49:20;7.00;99.90
11577;DHT22;5844;51.496;6.788;2023-02-05T09:52:00;7.10;99.90
11577;DHT22;5844;51.496;6.788;2023-02-05T09:54:35;7.20;99.90
11577;DHT22;5844;51.496;6.788;2023-02-05T09:57:08;7.10;99.90
11577;DHT22;5844;51.496;6.788;2023-02-05T09:59:35;7.00;99.90
11577;DHT22;5844;51.496;6.788;2023-02-05T10:02:13;7.00;99.90
11577;DHT22;5844;51.496;6.788;2023-02-05T10:04:42;7.00;99.90
11577;DHT22;5844;51.496;6.788;2023-02-05T10:07:40;7.10;99.90
11577;DHT22;5844;51.496;6.788;2023-02-05T10:10:26;7.00;99.90
11577;DHT22;5844;51.496;6.788;2023-02-05T10:13:02;7.10;99.90
11577;DHT22;5844;51.496;6.788;2023-02-05T10:23:58;7.20;99.90
11577;DHT22;5844;51.496;6.788;2023-02-05T10:26:43;7.10;99.90
11577;DHT22;5844;51.496;6.788;2023-02-05T10:29:30;7.10;99.90
11577;DHT22;5844;51.496;6.788;2023-02-05T10:35:00;7.10;99.90
11577;DHT22;5844;51.496;6.788;2023-02-05T10:37:43;7.10;99.90
11577;DHT22;5844;51.496;6.788;2023-02-05T10:40:30;7.10;99.90
11577;DHT22;5844;51.496;6.788;2023-02-05T10:43:02;7.20;99.90
11577;DHT22;5844;51.496;6.788;2023-02-05T10:45:29;7.10;99.90
11577;DHT22;5844;51.496;6.788;2023-02-05T10:53:05;7.10;99.90
11577;DHT22;5844;51.496;6.788;2023-02-05T10:55:30;7.10;99.90
11577;DHT22;5844;51.496;6.788;2023-02-05T10:57:56;7.10;99.90
11577;DHT22;5844;51.496;6.788;2023-02-05T11:00:22;7.10;99.90
11577;DHT22;5844;51.496;6.788;2023-02-05T11:02:51;7.10;99.90
11577;DHT22;5844;51.496;6.788;2023-02-05T11:05:33;7.10;99.90
11577;DHT22;5844;51.496;6.788;2023-02-05T11:08:00;7.10;99.90
11577;DHT22;5844;51.496;6.788;2023-02-05T11:10:31;7.10;99.90
11577;DHT22;5844;51.496;6.788;2023-02-05T11:13:13;7.10;99.90
11577;DHT22;5844;51.496;6.788;2023-02-05T11:15:53;7.10;99.90
11577;DHT22;5844;51.496;6.788;2023-02-05T11:18:25;7.10;99.90
11577;DHT22;5844;51.496;6.788;2023-02-05T11:20:59;7.10;99.90
11577;DHT22;5844;51.496;6.788;2023-02-05T11:23:27;7.10;99.90
11577;DHT22;5844;51.496;6.788;2023-02-05T11:26:00;7.10;99.90
11577;DHT22;5844;51.496;6.788;2023-02-05T11:28:27;7.10;99.90
11577;DHT22;5844;51.496;6.788;2023-02-05T11:30:54;7.10;99.90
11577;DHT22;5844;51.496;6.788;2023-02-05T11:38:23;7.10;99.90
11577;DHT22;5844;51.496;6.788;2023-02-05T11:40:55;7.20;99.90
11577;DHT22;5844;51.496;6.788;2023-02-05T11:43:33;7.30;99.90
11577;DHT22;5844;51.496;6.788;2023-02-05T11:46:00;7.10;99.90
11577;DHT22;5844;51.496;6.788;2023-02-05T11:48:42;7.10;99.90
11577;DHT22;5844;51.496;6.788;2023-02-05T11:51:12;7.20;99.90
11577;DHT22;5844;51.496;6.788;2023-02-05T11:53:57;7.10;99.90
11577;DHT22;5844;51.496;6.788;2023-02-05T11:56:25;7.20;99.90
11577;DHT22;5844;51.496;6.788;2023-02-05T11:59:20;7.10;99.90
11577;DHT22;5844;51.496;6.788;2023-02-05T12:01:46;7.10;99.90
11577;DHT22;5844;51.496;6.788;2023-02-05T12:04:13;7.20;99.90
11577;DHT22;5844;51.496;6.788;2023-02-05T12:09:21;7.20;99.90
11577;DHT22;5844;51.496;6.788;2023-02-05T12:17:13;7.20;99.90
11577;DHT22;5844;51.496;6.788;2023-02-05T12:19:48;7.30;99.90
11577;DHT22;5844;51.496;6.788;2023-02-05T12:28:08;7.30;99.90
11577;DHT22;5844;51.496;6.788;2023-02-05T12:39:03;7.30;99.90
11577;DHT22;5844;51.496;6.788;2023-02-05T12:41:54;7.30;99.90
11577;DHT22;5844;51.496;6.788;2023-02-05T12:47:15;7.30;99.90
11577;DHT22;5844;51.496;6.788;2023-02-05T12:57:50;7.30;99.90
11577;DHT22;5844;51.496;6.788;2023-02-05T13:00:32;7.40;99.90
11577;DHT22;5844;51.496;6.788;2023-02-05T13:03:22;7.40;99.90
11577;DHT22;5844;51.496;6.788;2023-02-05T13:05:54;7.40;99.90
11577;DHT22;5844;51.496;6.788;2023-02-05T13:08:41;7.50;99.90
11577;DHT22;5844;51.496;6.788;2023-02-05T13:11:27;7.60;99.90
11577;DHT22;5844;51.496;6.788;2023-02-05T13:16:31;7.70;99.90
11577;DHT22;5844;51.496;6.788;2023-02-05T13:19:30;7.70;99.90
11577;DHT22;5844;51.496;6.788;2023-02-05T13:22:03;7.80;99.90
11577;DHT22;5844;51.496;6.788;2023-02-05T13:24:56;7.90;99.90
11577;DHT22;5844;51.496;6.788;2023-02-05T13:27:45;7.90;99.90
11577;DHT22;5844;51.496;6.788;2023-02-05T13:30:36;8.10;99.90
11577;DHT22;5844;51.496;6.788;2023-02-05T13:33:04;8.10;99.90
11577;DHT22;5844;51.496;6.788;2023-02-05T13:35:46;8.10;99.90
11577;DHT22;5844;51.496;6.788;2023-02-05T13:43:49;8.10;99.90
11577;DHT22;5844;51.496;6.788;2023-02-05T13:46:31;8.20;99.90
11577;DHT22;5844;51.496;6.788;2023-02-05T13:52:02;8.20;99.90
11577;DHT22;5844;51.496;6.788;2023-02-05T13:59:46;8.30;99.90
11577;DHT22;5844;51.496;6.788;2023-02-05T14:04:57;8.30;99.90
11577;DHT22;5844;51.496;6.788;2023-02-05T14:07:32;8.30;99.90
11577;DHT22;5844;51.496;6.788;2023-02-05T14:10:00;8.20;99.90
11577;DHT22;5844;51.496;6.788;2023-02-05T14:12:37;8.20;99.90
11577;DHT22;5844;51.496;6.788;2023-02-05T14:22:51;8.80;99.90
11577;DHT22;5844;51.496;6.788;2023-02-05T14:38:52;8.40;99.90
11577;DHT22;5844;51.496;6.788;2023-02-05T14:43:58;8.50;99.90
11577;DHT22;5844;51.496;6.788;2023-02-05T14:46:30;8.50;99.90
11577;DHT22;5844;51.496;6.788;2023-02-05T14:48:57;8.50;99.90
11577;DHT22;5844;51.496;6.788;2023-02-05T14:51:37;8.60;99.90
11577;DHT22;5844;51.496;6.788;2023-02-05T14:54:13;8.60;99.90
11577;DHT22;5844;51.496;6.788;2023-02-05T14:59:39;8.50;99.90
11577;DHT22;5844;51.496;6.788;2023-02-05T15:06:14;8.40;99.90
11577;DHT22;5844;51.496;6.788;2023-02-05T15:13:36;8.30;99.90
11577;DHT22;5844;51.496;6.788;2023-02-05T15:18:57;8.30;99.90
11577;DHT22;5844;51.496;6.788;2023-02-05T15:21:38;8.40;99.90
11577;DHT22;5844;51.496;6.788;2023-02-05T15:24:18;8.30;99.90
11577;DHT22;5844;51.496;6.788;2023-02-05T15:26:58;8.30;99.90
11577;DHT22;5844;51.496;6.788;2023-02-05T15:31:59;8.30;99.90
11577;DHT22;5844;51.496;6.788;2023-02-05T15:34:40;8.30;99.90
11577;DHT22;5844;51.496;6.788;2023-02-05T15:37:28;8.30;99.90
11577;DHT22;5844;51.496;6.788;2023-02-05T15:40:04;8.30;99.90
11577;DHT22;5844;51.496;6.788;2023-02-05T15:42:42;8.40;99.90
11577;DHT22;5844;51.496;6.788;2023-02-05T15:45:21;8.40;99.90
11577;DHT22;5844;51.496;6.788;2023-02-05T15:48:01;8.40;99.90
11577;DHT22;5844;51.496;6.788;2023-02-05T15:50:28;8.30;99.90
11577;DHT22;5844;51.496;6.788;2023-02-05T15:52:54;8.30;99.90
11577;DHT22;5844;51.496;6.788;2023-02-05T15:55:21;8.30;99.90
11577;DHT22;5844;51.496;6.788;2023-02-05T15:57:49;8.30;99.90
11577;DHT22;5844;51.496;6.788;2023-02-05T16:00:21;8.30;99.90
11577;DHT22;5844;51.496;6.788;2023-02-05T16:02:57;8.30;99.90
11577;DHT22;5844;51.496;6.788;2023-02-05T16:05:24;8.20;99.90
11577;DHT22;5844;51.496;6.788;2023-02-05T16:07:50;8.20;99.90
11577;DHT22;5844;51.496;6.788;2023-02-05T16:10:28;8.20;99.90
11577;DHT22;5844;51.496;6.788;2023-02-05T16:13:13;8.30;99.90
11577;DHT22;5844;51.496;6.788;2023-02-05T16:15:45;8.20;84.90
11577;DHT22;5844;51.496;6.788;2023-02-05T16:20:51;8.00;1.00
11577;DHT22;5844;51.496;6.788;2023-02-05T16:23:28;7.90;1.00
11577;DHT22;5844;51.496;6.788;2023-02-05T16:25:59;7.80;1.00
11577;DHT22;5844;51.496;6.788;2023-02-05T16:28:46;7.70;1.00
11577;DHT22;5844;51.496;6.788;2023-02-05T16:31:18;7.50;1.00
11577;DHT22;5844;51.496;6.788;2023-02-05T16:33:51;7.40;1.00
11577;DHT22;5844;51.496;6.788;2023-02-05T16:36:22;7.30;1.00
11577;DHT22;5844;51.496;6.788;2023-02-05T16:39:42;7.20;1.00
11577;DHT22;5844;51.496;6.788;2023-02-05T16:42:06;7.10;1.00
11577;DHT22;5844;51.496;6.788;2023-02-05T16:44:37;7.00;1.00
11577;DHT22;5844;51.496;6.788;2023-02-05T16:47:24;7.00;1.00
11577;DHT22;5844;51.496;6.788;2023-02-05T16:49:50;6.90;1.00
11577;DHT22;5844;51.496;6.788;2023-02-05T16:52:28;7.10;99.90
11577;DHT22;5844;51.496;6.788;2023-02-05T16:54:56;7.10;4.20
11577;DHT22;5844;51.496;6.788;2023-02-05T16:57:30;7.20;1.00
11577;DHT22;5844;51.496;6.788;2023-02-05T17:00:03;7.20;1.00
11577;DHT22;5844;51.496;6.788;2023-02-05T17:02:38;7.30;1.00
11577;DHT22;5844;51.496;6.788;2023-02-05T17:05:19;7.40;1.00
11577;DHT22;5844;51.496;6.788;2023-02-05T17:07:55;7.40;1.00
11577;DHT22;5844;51.496;6.788;2023-02-05T17:10:22;7.40;1.00
11577;DHT22;5844;51.496;6.788;2023-02-05T17:13:08;7.40;1.00
11577;DHT22;5844;51.496;6.788;2023-02-05T17:15:49;7.40;1.00
11577;DHT22;5844;51.496;6.788;2023-02-05T17:18:27;7.40;1.00
11577;DHT22;5844;51.496;6.788;2023-02-05T17:21:23;7.40;1.00
11577;DHT22;5844;51.496;6.788;2023-02-05T17:23:50;7.40;1.00
11577;DHT22;5844;51.496;6.788;2023-02-05T17:26:16;7.40;1.00
11577;DHT22;5844;51.496;6.788;2023-02-05T17:28:45;7.40;1.00
11577;DHT22;5844;51.496;6.788;2023-02-05T17:31:14;7.40;1.00
11577;DHT22;5844;51.496;6.788;2023-02-05T17:33:42;7.40;1.00
11577;DHT22;5844;51.496;6.788;2023-02-05T17:36:14;7.40;1.00
11577;DHT22;5844;51.496;6.788;2023-02-05T17:38:42;7.30;1.00
11577;DHT22;5844;51.496;6.788;2023-02-05T17:41:19;7.30;1.00
11577;DHT22;5844;51.496;6.788;2023-02-05T17:44:04;7.20;1.00
11577;DHT22;5844;51.496;6.788;2023-02-05T17:46:30;7.20;1.00
11577;DHT22;5844;51.496;6.788;2023-02-05T17:48:56;7.20;1.00
11577;DHT22;5844;51.496;6.788;2023-02-05T17:51:23;7.20;1.00
11577;DHT22;5844;51.496;6.788;2023-02-05T17:53:49;7.10;1.00
11577;DHT22;5844;51.496;6.788;2023-02-05T17:56:17;7.10;1.00
11577;DHT22;5844;51.496;6.788;2023-02-05T17:58:44;7.10;1.00
11577;DHT22;5844;51.496;6.788;2023-02-05T18:01:10;7.00;1.00
11577;DHT22;5844;51.496;6.788;2023-02-05T18:03:37;7.00;1.00
11577;DHT22;5844;51.496;6.788;2023-02-05T18:06:04;6.90;1.00
11577;DHT22;5844;51.496;6.788;2023-02-05T18:08:30;6.90;1.00
11577;DHT22;5844;51.496;6.788;2023-02-05T18:10:56;6.80;1.00
11577;DHT22;5844;51.496;6.788;2023-02-05T18:13:21;6.80;1.00
11577;DHT22;5844;51.496;6.788;2023-02-05T18:15:48;6.70;1.00
11577;DHT22;5844;51.496;6.788;2023-02-05T18:18:17;6.60;1.00
11577;DHT22;5844;51.496;6.788;2023-02-05T18:20:43;6.50;1.00
11577;DHT22;5844;51.496;6.788;2023-02-05T18:23:08;6.50;1.00
11577;DHT22;5844;51.496;6.788;2023-02-05T18:25:34;6.40;1.00
11577;DHT22;5844;51.496;6.788;2023-02-05T18:28:00;6.40;1.00
11577;DHT22;5844;51.496;6.788;2023-02-05T18:30:25;6.20;1.00
11577;DHT22;5844;51.496;6.788;2023-02-05T18:32:51;6.30;1.00
11577;DHT22;5844;51.496;6.788;2023-02-05T18:35:16;6.30;1.00
11577;DHT22;5844;51.496;6.788;2023-02-05T18:37:43;6.20;1.00
11577;DHT22;5844;51.496;6.788;2023-02-05T18:40:10;6.10;1.00
11577;DHT22;5844;51.496;6.788;2023-02-05T18:42:37;6.10;1.00
11577;DHT22;5844;51.496;6.788;2023-02-05T18:45:03;6.60;1.00
11577;DHT22;5844;51.496;6.788;2023-02-05T18:47:29;6.10;1.00
11577;DHT22;5844;51.496;6.788;2023-02-05T18:49:54;6.00;1.00